Thunder radar more information blitzortung!


Radar de pluja more information rain snow radar


Visita la nostra xarxa de llocs de meteo:

Template documentation
and downloads

And another site



No particular awareness of the weather is required.    There are no Weather-warnings

Pagina Historial Weather Underground text

Diari Resum Novembre 23, 2017 Unitats:  Imperial    Mètric   Tant
« Previous Dia
SegĂźent Dia »
Diari Setmana Mensual Anual Personalitzada
  Maxima: Minima: Media:
Temperatura: 67.6 °F 43 °F 55 °F
Punt de rosada: 54.3 °F 35.4 °F 47.1 °F
Humitat: 90 % 62 % 76 %
Wind Speed: 5.8 mph 0 mph 2.1 mph
RĂ fegues de vent: 6 mph - -
Vent:- - SW
Pression baro: 30.1 in 30.1 in -
Precipitacions: 0 in    
Historical Graphs
 
 
Dades de taula per Novembre 23, 2017
Temps Temperatura Punt de rosada Pression baro Vent Wind Speed RĂ fegues de vent Humitat Rainfall Rate (Hourly)
00:04 47.3 °F 42.1 °F 30.1 in Calm     82 % 0 in
00:09 47.5 °F 42.6 °F 30.1 in NE 2.3 mph 2.3 mph 83 % 0 in
00:14 47.1 °F 42.3 °F 30.1 in NE 2.3 mph 2.3 mph 83 % 0 in
00:15 44.2 °F 40.6 °F 30.1 in Calm     87 % 0 in
00:35 43.3 °F 39.4 °F 30.1 in Calm   2 mph 86 % 0 in
00:45 43.3 °F 39.7 °F 30.1 in Calm     87 % 0 in
00:55 43.5 °F 39.9 °F 30.1 in Calm     87 % 0 in
01:05 43.3 °F 39.4 °F 30.1 in SW 2 mph 2 mph 86 % 0 in
01:15 43 °F 38.8 °F 30.1 in SW 1 mph 2 mph 85 % 0 in
01:45 43 °F 39 °F 30.1 in Calm     86 % 0 in
01:55 43.2 °F 39.6 °F 30.1 in Calm   1 mph 87 % 0 in
02:15 43 °F 39 °F 30.1 in NNE 1 mph 2 mph 86 % 0 in
02:25 43.5 °F 39.9 °F 30.1 in WSW 1 mph 2 mph 87 % 0 in
02:35 44.1 °F 40.6 °F 30.1 in Calm     88 % 0 in
02:45 44.2 °F 40.8 °F 30.1 in West 1 mph 2 mph 88 % 0 in
02:55 45 °F 41.9 °F 30.1 in Calm     89 % 0 in
03:05 45 °F 41.5 °F 30.1 in SW 1 mph 1 mph 88 % 0 in
03:15 45 °F 41.5 °F 30.1 in Calm   1 mph 88 % 0 in
03:25 45.1 °F 41.7 °F 30.1 in Calm     88 % 0 in
03:35 45.3 °F 42.3 °F 30.1 in Calm   2 mph 89 % 0 in
03:45 45.1 °F 41.7 °F 30.1 in SSW 1 mph 2 mph 88 % 0 in
03:55 45.3 °F 42.1 °F 30.1 in WSW 1 mph 2 mph 88 % 0 in
04:05 45.7 °F 42.3 °F 30.1 in SW 1 mph 2 mph 88 % 0 in
04:15 46 °F 42.6 °F 30.1 in SW 1 mph 2 mph 88 % 0 in
04:25 46.8 °F 43.7 °F 30.1 in Calm     89 % 0 in
04:35 48.4 °F 45.7 °F 30.1 in WNW 1 mph 1 mph 90 % 0 in
04:45 49.6 °F 46.6 °F 30.1 in NE 1 mph 2 mph 89 % 0 in
04:55 51.1 °F 47.7 °F 30.1 in SE 1 mph 2 mph 88 % 0 in
05:05 51.4 °F 47.5 °F 30.1 in SW 1 mph 2 mph 86 % 0 in
05:15 51.8 °F 47.1 °F 30.1 in SSW 2 mph 2 mph 84 % 0 in
05:25 53.1 °F 48 °F 30.1 in South 1 mph 3 mph 83 % 0 in
05:35 53.8 °F 48 °F 30.1 in NNE 1 mph 3 mph 81 % 0 in
05:45 53.6 °F 47.1 °F 30.1 in NNE 3 mph 6 mph 79 % 0 in
05:55 53.4 °F 47.1 °F 30.1 in NE 1 mph 4 mph 79 % 0 in
11:57 54 °F 47.3 °F 30.1 in NE 2.3 mph 2.3 mph 78 % 0 in
11:58 54 °F 47.3 °F 30.1 in NE 2.3 mph 2.3 mph 78 % 0 in
12:03 54.1 °F 47.5 °F 30.1 in NW 3.5 mph 3.5 mph 78 % 0 in
12:08 54 °F 46.9 °F 30.1 in North 2.3 mph 2.3 mph 77 % 0 in
12:13 54.1 °F 47.1 °F 30.1 in North 2.3 mph 2.3 mph 77 % 0 in
12:18 54.3 °F 46.9 °F 30.1 in East 2.3 mph   76 % 0 in
12:23 54.5 °F 47.1 °F 30.1 in NW 2 mph   76 % 0 in
12:28 54.5 °F 47.1 °F 30.1 in ENE 2.3 mph 2.3 mph 76 % 0 in
12:33 54.7 °F 47.3 °F 30.1 in NNW 2.3 mph 2.3 mph 76 % 0 in
12:38 54.9 °F 47.5 °F 30.1 in NW 2.3 mph 2.3 mph 76 % 0 in
12:43 55.2 °F 47.8 °F 30.1 in North 1.2 mph 1.2 mph 76 % 0 in
12:48 56.3 °F 48.7 °F 30.1 in SW 2.3 mph 2.3 mph 76 % 0 in
12:53 57.4 °F 49.8 °F 30.1 in West 2.6 mph 2.6 mph 76 % 0 in
12:58 58.1 °F 50.2 °F 30.1 in SSE 2.3 mph 2.3 mph 75 % 0 in
13:13 59.9 °F 52 °F 30.1 in SW 4.6 mph 4.6 mph 75 % 0 in
13:18 60.4 °F 52.2 °F 30.1 in WSW 2.3 mph 2.3 mph 74 % 0 in
13:23 61 °F 53.1 °F 30.1 in SW 3.5 mph 3.5 mph 75 % 0 in
13:28 61.5 °F 53.4 °F 30.1 in SW 4.6 mph 4.6 mph 75 % 0 in
13:33 61.9 °F 53.4 °F 30.1 in SW 4.6 mph 4.6 mph 74 % 0 in
13:38 62.1 °F 53.8 °F 30.1 in SW 5.8 mph 5.8 mph 74 % 0 in
13:43 62.4 °F 53.6 °F 30.1 in WSW 4.6 mph 4.6 mph 73 % 0 in
13:48 62.6 °F 53.4 °F 30.1 in SW 5.4 mph 5.4 mph 72 % 0 in
13:53 62.8 °F 53.6 °F 30.1 in WNW 3.5 mph 3.5 mph 72 % 0 in
13:58 63.1 °F 54 °F 30.1 in SW 3.5 mph 3.5 mph 72 % 0 in
14:03 63.5 °F 54 °F 30.1 in West 3.1 mph 3.1 mph 71 % 0 in
14:08 63.7 °F 53.8 °F 30.1 in WSW 4.6 mph 4.6 mph 70 % 0 in
14:13 63.9 °F 53.4 °F 30.1 in SW 4.6 mph 4.6 mph 69 % 0 in
14:28 64.9 °F 54.1 °F 30.1 in SW 3.5 mph 3.5 mph 68 % 0 in
14:33 65.1 °F 54.3 °F 30.1 in SW 3.5 mph 3.5 mph 68 % 0 in
14:38 65.1 °F 54.3 °F 30.1 in WSW 4.6 mph 4.6 mph 68 % 0 in
14:43 65.1 °F 54.3 °F 30.1 in SW 5.8 mph 5.8 mph 68 % 0 in
14:53 65.1 °F 54 °F 30.1 in SW 5.8 mph 5.8 mph 67 % 0 in
14:58 65.7 °F 54.3 °F 30.1 in WSW 5.8 mph 5.8 mph 67 % 0 in
15:03 65.8 °F 54.1 °F 30.1 in SSW 5.8 mph 5.8 mph 66 % 0 in
15:08 65.8 °F 54.1 °F 30.1 in SSW 3.5 mph 3.5 mph 66 % 0 in
15:23 66.7 °F 53.8 °F 30.1 in West 4.6 mph 4.6 mph 63 % 0 in
15:28 66.6 °F 53.6 °F 30.1 in SW 4.6 mph 4.6 mph 63 % 0 in
15:33 66.7 °F 53.8 °F 30.1 in WSW 3.1 mph 3.1 mph 63 % 0 in
15:38 67.1 °F 54.1 °F 30.1 in WSW 3.6 mph 3.6 mph 63 % 0 in
15:43 67.3 °F 54.3 °F 30.1 in SW 3.5 mph 3.5 mph 63 % 0 in
15:48 67.3 °F 53.8 °F 30.1 in SSW 4.6 mph 4.6 mph 62 % 0 in
15:58 67.6 °F 54.1 °F 30.1 in SW 2.3 mph 2.3 mph 62 % 0 in
16:03 67.5 °F 54 °F 30.1 in SW 3.8 mph 3.8 mph 62 % 0 in
16:08 67.3 °F 53.8 °F 30.1 in SW 4.6 mph 4.6 mph 62 % 0 in
16:13 67.3 °F 53.8 °F 30.1 in SW 4.3 mph 4.3 mph 62 % 0 in
16:18 67.3 °F 53.8 °F 30.1 in SSW 4 mph 4 mph 62 % 0 in
16:23 67.1 °F 53.6 °F 30.1 in SW 4.6 mph 4.6 mph 62 % 0 in
16:28 66.7 °F 53.2 °F 30.1 in SW 3.5 mph 3.5 mph 62 % 0 in
16:38 66.4 °F 53.1 °F 30.1 in SW 2.3 mph 2.3 mph 62 % 0 in
16:43 66 °F 53.4 °F 30.1 in SW 2.4 mph 2.4 mph 64 % 0 in
16:48 65.8 °F 53.2 °F 30.1 in WSW 2.3 mph 2.3 mph 64 % 0 in
16:58 65.1 °F 52.5 °F 30.1 in SW 2.3 mph 2.3 mph 64 % 0 in
17:03 64.6 °F 52.5 °F 30.1 in Calm     65 % 0 in
17:08 64.2 °F 52.2 °F 30.1 in West 2.3 mph 2.3 mph 65 % 0 in
17:13 63.7 °F 51.6 °F 30.1 in Calm     65 % 0 in
17:28 62.1 °F 51.4 °F 30.1 in WSW 1.2 mph 1.2 mph 68 % 0 in
17:33 61.7 °F 51.1 °F 30.1 in Calm     68 % 0 in
17:38 61.3 °F 51.1 °F 30.1 in Calm     69 % 0 in
17:43 61 °F 50.7 °F 30.1 in Calm     69 % 0 in
17:48 60.8 °F 51.1 °F 30.1 in Calm     70 % 0 in
17:53 60.6 °F 50.7 °F 30.1 in WSW 2 mph 2 mph 70 % 0 in
18:03 59.4 °F 49.6 °F 30.1 in West 1.4 mph 1.4 mph 70 % 0 in
18:08 59.2 °F 49.8 °F 30.1 in WSW 2.3 mph 2.3 mph 71 % 0 in
18:13 58.8 °F 49.8 °F 30.1 in SW 2.3 mph   72 % 0 in
18:23 58.1 °F 49.5 °F 30.1 in SW 2.3 mph 2.3 mph 73 % 0 in
18:28 57.7 °F 49.1 °F 30.1 in SW 2.6 mph 2.6 mph 73 % 0 in
18:33 57.4 °F 48.7 °F 30.1 in SW 3.5 mph 3.5 mph 73 % 0 in
18:38 57.2 °F 48.6 °F 30.1 in SW 2.9 mph 2.9 mph 73 % 0 in
18:43 57.2 °F 48.9 °F 30.1 in SW 3.5 mph 3.5 mph 74 % 0 in
18:58 57.9 °F 50.4 °F 30.1 in SW 4.6 mph 4.6 mph 76 % 0 in
19:03 57.7 °F 50.2 °F 30.1 in WSW 3.5 mph 3.5 mph 76 % 0 in
19:08 57.7 °F 50.2 °F 30.1 in WSW 3.5 mph 3.5 mph 76 % 0 in
19:13 57.6 °F 50.4 °F 30.1 in WSW 3.5 mph 3.5 mph 77 % 0 in
19:18 57.4 °F 50.2 °F 30.1 in SW 3.1 mph 3.1 mph 77 % 0 in
19:23 57.2 °F 50.2 °F 30.1 in SW 4.6 mph 4.6 mph 77 % 0 in
19:28 57 °F 50.2 °F 30.1 in SW 3.5 mph 3.5 mph 78 % 0 in
19:33 56.8 °F 50.2 °F 30.1 in WSW 3.5 mph 3.5 mph 78 % 0 in
19:38 56.5 °F 50 °F 30.1 in West 2.3 mph 2.3 mph 79 % 0 in
19:43 56.3 °F 49.8 °F 30.1 in West 2.3 mph 2.3 mph 79 % 0 in
19:48 56.1 °F 49.6 °F 30.1 in WNW 1.2 mph   79 % 0 in
19:53 55.9 °F 49.8 °F 30.1 in West 1.2 mph   80 % 0 in
19:58 55.8 °F 49.6 °F 30.1 in Calm     80 % 0 in
20:13 55.2 °F 48.7 °F 30.1 in West 3.5 mph 3.5 mph 79 % 0 in
20:23 55.4 °F 48.9 °F 30.1 in WSW 4.6 mph 4.6 mph 79 % 0 in
20:28 55.4 °F 49.3 °F 30.1 in WSW 2.3 mph 2.3 mph 80 % 0 in
20:33 55.2 °F 49.3 °F 30.1 in WSW 2.3 mph 2.3 mph 80 % 0 in
20:38 55 °F 48.9 °F 30.1 in WSW 2.3 mph 2.3 mph 80 % 0 in
20:43 55 °F 49.3 °F 30.1 in West 2.3 mph 2.3 mph 81 % 0 in
20:58 54.5 °F 49.1 °F 30.1 in West 1.4 mph 1.4 mph 82 % 0 in
20:59 54.5 °F 49.1 °F 30.1 in SW 2.3 mph 2.3 mph 82 % 0 in
21:04 54.5 °F 49.1 °F 30.1 in WSW 2.3 mph 2.3 mph 82 % 0 in
21:05 48.9 °F 39.9 °F 30.1 in WNW 1 mph 2 mph 71 % 0 in
21:09 54.3 °F 48.9 °F 30.1 in West 2.2 mph   82 % 0 in
21:14 54 °F 48.4 °F 30.1 in WSW 1.2 mph 1.4 mph 81 % 0 in
21:15 49.1 °F 39 °F 30.1 in WNW 1 mph 1 mph 68 % 0 in
21:19 53.8 °F 48 °F 30.1 in WSW 1.2 mph   81 % 0 in
21:25 49.8 °F 39.4 °F 30.1 in WNW 1 mph 2 mph 67 % 0 in
21:29 53.2 °F 47.7 °F 30.1 in Calm     81 % 0 in
21:35 50.7 °F 40.3 °F 30.1 in NW 1 mph 1 mph 67 % 0 in
21:39 52.7 °F 46.9 °F 30.1 in WNW 1.2 mph 1.2 mph 81 % 0 in
21:44 52.5 °F 46.6 °F 30.1 in WSW 2.3 mph 2.3 mph 80 % 0 in
21:45 50.4 °F 38.7 °F 30.1 in Calm   2 mph 64 % 0 in
21:49 52.2 °F 46.2 °F 30.1 in West 2 mph 2 mph 80 % 0 in
21:55 49.8 °F 38.1 °F 30.1 in Calm   1 mph 64 % 0 in
22:04 52.2 °F 45.5 °F 30.1 in WSW 1.2 mph 1.2 mph 78 % 0 in
22:05 48.6 °F 37.8 °F 30.1 in ENE 1 mph 2 mph 66 % 0 in
22:09 52.2 °F 45.5 °F 30.1 in West 2.3 mph   78 % 0 in
22:19 52.3 °F 46 °F 30.1 in Calm     79 % 0 in
22:24 52.2 °F 45.9 °F 30.1 in Calm     79 % 0 in
22:25 47.3 °F 37.2 °F 30.1 in Calm   2 mph 68 % 0 in
22:29 51.4 °F 45.1 °F 30.1 in SSE 1.4 mph 1.4 mph 79 % 0 in
22:34 51.1 °F 44.8 °F 30.1 in SSW 1.6 mph 1.6 mph 79 % 0 in
22:35 46.8 °F 36.9 °F 30.1 in Calm     68 % 0 in
22:39 50.5 °F 44.2 °F 30.1 in Calm     79 % 0 in
22:55 46.6 °F 37 °F 30.1 in Calm   3 mph 69 % 0 in
22:59 48.9 °F 42.4 °F 30.1 in WSW 2.3 mph 2.3 mph 78 % 0 in
23:04 49.5 °F 43.2 °F 30.1 in WSW 2.4 mph 2.4 mph 79 % 0 in
23:05 46.8 °F 37 °F 30.1 in Calm   1 mph 69 % 0 in
23:14 49.1 °F 43.2 °F 30.1 in Calm     80 % 0 in
23:15 47.7 °F 37.2 °F 30.1 in West 1 mph 2 mph 67 % 0 in
23:24 48.9 °F 43 °F 30.1 in SW 1.2 mph 1.2 mph 80 % 0 in
23:25 47.1 °F 36.7 °F 30.1 in NNW 3 mph 3 mph 67 % 0 in
23:29 48.9 °F 43.3 °F 30.1 in Calm     81 % 0 in
23:34 48.7 °F 43.2 °F 30.1 in Calm     81 % 0 in
23:35 46.8 °F 36.3 °F 30.1 in North 1 mph 3 mph 67 % 0 in
23:39 48.6 °F 42.6 °F 30.1 in SW 1.4 mph 1.4 mph 80 % 0 in
23:44 48.6 °F 42.6 °F 30.1 in Calm     80 % 0 in
23:45 46.6 °F 36.1 °F 30.1 in NE 1 mph 1 mph 67 % 0 in
23:49 48.6 °F 42.6 °F 30.1 in Calm     80 % 0 in
23:55 45.5 °F 35.4 °F 30.1 in SSW 3 mph 3 mph 68 % 0 in
23:59 48.4 °F 42.4 °F 30.1 in NNE 2.3 mph 2.3 mph 80 % 0 in
Meteo Sesrovires
Elogis d' Weather Underground - 3.25 mb

Guio original per  Jim McMurry - jmcmurry@mwt.net Adaptat per a la plantilla per  Wim van der Kuil - Leuven-Template.eu

Trobareu la nostra informacio del temps tambe a:

Weather Underground

AWEKAS